Time;durP1;ratioP1;P1;durP2;ratioP2;P2;SDS_P1;SDS_P2;PMS_P1;PMS_P2;Temp;Humidity;BMP_temperature;BMP_pressure;BME280_temperature;BME280_humidity;BME280_pressure;Samples;Min_cycle;Max_cycle;Signal;HPM_P1;HPM_P2
2022/10/05 00:00:58;;;;;;;0.70;0.70;;;;;;;5.95;90.98;98545.88;4960314;28;20498;-84
2022/10/05 00:03:39;;;;;;;0.70;0.70;;;;;;;5.95;90.94;98549.41;4993193;28;20053;-85
2022/10/05 00:06:08;;;;;;;0.60;0.60;;;;;;;5.93;90.77;98551.47;4997174;28;20047;-84
2022/10/05 00:08:36;;;;;;;0.70;0.70;;;;;;;5.93;91.16;98551.47;4997613;28;20054;-84
2022/10/05 00:11:06;;;;;;;0.65;0.65;;;;;;;5.95;91.12;98552.09;4992546;28;20461;-82
2022/10/05 00:13:33;;;;;;;0.70;0.70;;;;;;;5.94;91.07;98542.41;4994279;28;20571;-84
2022/10/05 00:16:09;;;;;;;0.70;0.70;;;;;;;5.93;91.02;98545.28;4992996;28;20050;-85
2022/10/05 00:18:37;;;;;;;0.70;0.70;;;;;;;5.91;90.96;98542.81;4991999;28;20046;-87
2022/10/05 00:21:23;;;;;;;0.70;0.70;;;;;;;5.90;91.20;98546.56;4993788;28;20391;-85
2022/10/05 00:23:51;;;;;;;0.70;0.70;;;;;;;5.90;91.49;98537.69;4994308;28;20456;-84
2022/10/05 00:26:22;;;;;;;0.60;0.60;;;;;;;5.89;91.43;98546.78;4993928;28;20050;-84
2022/10/05 00:28:49;;;;;;;0.70;0.70;;;;;;;5.91;91.30;98542.81;4994437;28;20054;-84
2022/10/05 00:31:22;;;;;;;0.70;0.70;;;;;;;5.92;91.13;98546.31;4994074;28;20050;-84
2022/10/05 00:33:49;;;;;;;0.70;0.70;;;;;;;5.94;91.34;98553.09;4977047;28;20082;-83
2022/10/05 00:36:19;;;;;;;0.70;0.70;;;;;;;5.92;91.39;98546.31;4994439;28;20136;-86
2022/10/05 00:38:46;;;;;;;0.70;0.70;;;;;;;5.88;91.39;98554.00;4994123;28;20042;-86
2022/10/05 00:41:31;;;;;;;0.60;0.60;;;;;;;5.91;91.61;98558.91;4976493;28;20050;-85
2022/10/05 00:44:20;;;;;;;0.80;0.80;;;;;;;5.88;91.50;98556.66;4993945;28;20054;-85
2022/10/05 00:47:00;;;;;;;0.70;0.70;;;;;;;5.88;91.65;98554.00;4992641;28;20050;-85
2022/10/05 00:49:50;;;;;;;0.70;0.70;;;;;;;5.94;91.85;98555.78;4994066;28;20457;-88
2022/10/05 00:52:36;;;;;;;0.70;0.70;;;;;;;5.95;91.68;98556.59;4973092;28;20065;-86
2022/10/05 00:55:21;;;;;;;0.70;0.70;;;;;;;5.97;91.88;98560.69;4985019;28;20461;-85
2022/10/05 00:58:27;;;;;;;0.70;0.70;;;;;;;5.95;91.86;98554.75;4982193;28;20058;-85
2022/10/05 01:01:02;;;;;;;0.60;0.60;;;;;;;5.95;91.83;98549.41;4974047;28;20050;-85
2022/10/05 01:04:11;;;;;;;0.70;0.70;;;;;;;5.93;92.25;98562.16;4956914;28;20169;-85
2022/10/05 01:06:59;;;;;;;0.50;0.50;;;;;;;5.93;92.23;98554.13;4933228;29;20538;-85
2022/10/05 01:09:35;;;;;;;0.65;0.65;;;;;;;5.93;92.33;98550.66;4917076;29;20139;-85
2022/10/05 01:12:08;;;;;;;0.60;0.60;;;;;;;5.92;92.45;98549.81;4932790;29;20471;-85
2022/10/05 01:14:42;;;;;;;0.70;0.70;;;;;;;5.93;92.60;98558.69;4933081;29;20070;-84
2022/10/05 01:17:18;;;;;;;0.70;0.70;;;;;;;5.90;92.73;98562.63;4932813;29;20431;-84
2022/10/05 01:20:03;;;;;;;0.70;0.70;;;;;;;5.86;93.16;98561.44;4917295;29;20063;-84
2022/10/05 01:22:45;;;;;;;0.70;0.70;;;;;;;5.82;93.40;98560.22;4932703;29;20146;-84
2022/10/05 01:25:23;;;;;;;0.70;0.70;;;;;;;5.76;93.68;98558.47;4916908;29;20047;-85
2022/10/05 01:28:11;;;;;;;0.68;0.68;;;;;;;5.75;93.93;98564.88;4921756;29;20058;-84
2022/10/05 01:30:59;;;;;;;0.70;0.70;;;;;;;5.75;94.13;98557.66;4933810;29;20052;-85
2022/10/05 01:33:43;;;;;;;0.70;0.70;;;;;;;5.78;94.28;98561.75;4916828;29;20514;-84
2022/10/05 01:36:18;;;;;;;;;;;;;;;5.75;94.25;98556.84;4917544;29;20052;-85
2022/10/05 01:38:57;;;;;;;0.63;0.63;;;;;;;5.71;94.31;98553.78;4932753;29;19926;-85
2022/10/05 01:41:36;;;;;;;0.70;0.70;;;;;;;5.70;94.45;98556.66;4932324;29;20112;-85
2022/10/05 01:44:15;;;;;;;0.70;0.70;;;;;;;5.71;94.78;98555.63;4963018;28;20322;-84
2022/10/05 01:46:43;;;;;;;0.60;0.60;;;;;;;5.70;94.84;98548.63;4955974;28;20058;-85
2022/10/05 01:49:31;;;;;;;0.60;0.60;;;;;;;5.72;95.05;98554.59;4956003;28;20055;-85
2022/10/05 01:52:01;;;;;;;0.70;0.70;;;;;;;5.70;95.21;98556.66;4939793;28;20101;-85
2022/10/05 01:54:30;;;;;;;0.65;0.65;;;;;;;5.70;95.24;98551.31;4972909;28;20054;-85
2022/10/05 01:57:25;;;;;;;0.63;0.63;;;;;;;5.74;95.56;98552.50;4939874;28;20117;-84
2022/10/05 02:00:02;;;;;;;0.60;0.60;;;;;;;5.65;95.36;98560.84;4971823;28;20106;-84
2022/10/05 02:02:51;;;;;;;0.60;0.60;;;;;;;5.63;95.66;98562.94;4972935;28;20057;-84
2022/10/05 02:05:21;;;;;;;0.70;0.70;;;;;;;5.65;95.88;98571.56;4971371;28;20047;-85
2022/10/05 02:08:08;;;;;;;0.70;0.70;;;;;;;5.69;96.23;98571.09;4939746;28;20130;-85
2022/10/05 02:10:42;;;;;;;0.63;0.63;;;;;;;5.68;96.03;98564.94;4954783;28;20596;-84
2022/10/05 02:13:32;;;;;;;0.70;0.70;;;;;;;5.67;96.14;98555.25;4939462;28;20138;-84
2022/10/05 02:16:03;;;;;;;0.60;0.60;;;;;;;5.68;96.35;98570.28;4971749;28;20089;-85
2022/10/05 02:18:35;;;;;;;0.60;0.60;;;;;;;5.70;96.62;98568.22;4939810;28;20502;-83
2022/10/05 02:21:03;;;;;;;0.57;0.57;;;;;;;5.69;96.65;98565.75;4971412;28;20049;-84
2022/10/05 02:23:32;;;;;;;0.70;0.70;;;;;;;5.69;96.84;98560.41;4971353;28;20051;-85
2022/10/05 02:26:00;;;;;;;0.60;0.60;;;;;;;5.71;97.19;98558.31;4939351;28;20050;-85
2022/10/05 02:28:43;;;;;;;0.70;0.70;;;;;;;5.75;97.41;98562.19;4955609;28;20128;-85
2022/10/05 02:31:17;;;;;;;0.60;0.60;;;;;;;5.68;97.54;98566.81;4955657;28;20629;-84
2022/10/05 02:33:46;;;;;;;0.60;0.60;;;;;;;5.62;97.63;98572.00;4971272;28;20054;-85
2022/10/05 02:36:19;;;;;;;0.70;0.70;;;;;;;5.60;98.05;98568.72;4955161;28;20054;-85
2022/10/05 02:39:11;;;;;;;0.70;0.70;;;;;;;5.64;98.50;98564.53;4971358;28;20141;-86
2022/10/05 02:42:14;;;;;;;0.70;0.70;;;;;;;5.70;98.76;98578.09;4955212;28;20055;-85
2022/10/05 02:45:10;;;;;;;0.70;0.70;;;;;;;5.67;98.74;98573.19;4954198;28;20081;-85
2022/10/05 02:48:04;;;;;;;0.60;0.60;;;;;;;5.60;98.32;98575.94;4928417;29;20074;-86
2022/10/05 02:50:49;;;;;;;0.70;0.70;;;;;;;5.60;98.73;98576.75;4950551;29;20047;-85
2022/10/05 02:53:21;;;;;;;0.70;0.70;;;;;;;5.60;98.74;98582.13;4950469;29;20059;-84
2022/10/05 02:56:14;;;;;;;0.70;0.70;;;;;;;5.60;98.71;98584.78;4950852;29;20142;-83
2022/10/05 02:58:51;;;;;;;0.70;0.70;;;;;;;5.59;98.76;98580.47;4945703;29;20206;-84
2022/10/05 03:01:40;;;;;;;0.60;0.60;;;;;;;5.62;98.94;98581.88;4950427;29;20144;-85
2022/10/05 03:04:25;;;;;;;0.70;0.70;;;;;;;5.61;99.00;98578.38;4950509;29;20142;-86
2022/10/05 03:07:02;;;;;;;;;;;;;;;5.56;98.85;98578.22;4935223;29;20051;-85
2022/10/05 03:09:38;;;;;;;0.70;0.70;;;;;;;5.53;98.97;98584.03;4934372;29;20361;-86
2022/10/05 03:12:24;;;;;;;0.70;0.70;;;;;;;5.55;99.14;98586.50;4950033;28;20121;-85
2022/10/05 03:15:03;;;;;;;0.70;0.70;;;;;;;5.53;99.40;98589.41;4950011;29;20568;-85
2022/10/05 03:18:22;;;;;;;0.70;0.70;;;;;;;5.53;99.47;98585.91;4950059;29;20055;-87
2022/10/05 03:21:10;;;;;;;0.70;0.70;;;;;;;5.53;99.62;98589.41;4950510;29;20047;-86
2022/10/05 03:23:57;;;;;;;0.70;0.70;;;;;;;5.50;99.47;98584.50;4944020;28;20141;-86
2022/10/05 03:26:48;;;;;;;0.60;0.60;;;;;;;5.49;99.68;98582.03;4973757;28;20061;-86
2022/10/05 03:29:54;;;;;;;0.70;0.70;;;;;;;5.52;99.53;98582.41;4991176;28;20050;-84
2022/10/05 03:32:38;;;;;;;0.70;0.70;;;;;;;5.55;99.51;98591.88;4973945;28;20394;-85
2022/10/05 03:35:14;;;;;;;0.63;0.63;;;;;;;5.52;99.39;98594.97;4977369;28;20042;-84
2022/10/05 03:37:52;;;;;;;0.70;0.70;;;;;;;5.48;99.24;98602.63;4977678;28;20509;-85
2022/10/05 03:40:40;;;;;;;0.70;0.70;;;;;;;5.47;99.44;98595.66;4990308;28;20055;-86
2022/10/05 03:43:33;;;;;;;0.70;0.70;;;;;;;5.44;99.32;98601.41;4993211;28;20097;-85
2022/10/05 03:46:16;;;;;;;0.70;0.70;;;;;;;5.42;99.30;98603.53;4979089;28;20050;-88
2022/10/05 03:48:52;;;;;;;0.70;0.70;;;;;;;5.42;99.41;98600.84;4977793;28;20529;-87
2022/10/05 03:51:28;;;;;;;0.60;0.60;;;;;;;5.43;99.65;98613.19;4993417;28;20100;-87
2022/10/05 03:54:21;;;;;;;0.60;0.60;;;;;;;5.45;99.83;98600.41;4977917;28;20054;-87
2022/10/05 03:57:01;;;;;;;0.70;0.70;;;;;;;5.47;99.95;98598.31;4993491;28;20042;-87
2022/10/05 03:59:32;;;;;;;0.60;0.60;;;;;;;5.51;100.00;98602.19;4977394;28;20051;-88
2022/10/05 04:02:09;;;;;;;0.70;0.70;;;;;;;5.47;99.99;98595.66;4993554;28;20058;-87
2022/10/05 04:04:41;;;;;;;0.60;0.60;;;;;;;5.46;100.00;98599.34;4977856;28;20050;-88
2022/10/05 04:07:27;;;;;;;0.60;0.60;;;;;;;5.46;100.00;98604.69;4994215;28;20137;-88
2022/10/05 04:09:54;;;;;;;0.80;0.80;;;;;;;5.46;100.00;98603.88;4976629;28;20070;-85
2022/10/05 04:12:25;;;;;;;0.70;0.70;;;;;;;5.42;99.92;98606.19;4993610;28;20050;-85
2022/10/05 04:14:56;;;;;;;0.70;0.70;;;;;;;5.40;100.00;98608.28;4976454;28;20081;-86
2022/10/05 04:17:38;;;;;;;0.70;0.70;;;;;;;5.42;100.00;98615.03;4992623;28;20074;-86
2022/10/05 04:20:18;;;;;;;0.60;0.60;;;;;;;5.38;99.91;98610.34;4976397;28;20120;-88
2022/10/05 04:22:53;;;;;;;0.70;0.70;;;;;;;5.38;100.00;98608.47;4992967;28;20104;-87
2022/10/05 04:25:25;;;;;;;0.70;0.70;;;;;;;5.43;100.00;98607.81;4992528;28;20425;-86
2022/10/05 04:28:03;;;;;;;0.70;0.70;;;;;;;5.48;100.00;98610.66;4992588;28;20058;-86
2022/10/05 04:30:32;;;;;;;0.60;0.60;;;;;;;5.53;100.00;98604.66;4960363;28;20133;-86
2022/10/05 04:33:00;;;;;;;0.70;0.70;;;;;;;5.57;100.00;98605.81;4960577;28;20054;-86
2022/10/05 04:36:00;;;;;;;0.70;0.70;;;;;;;5.60;100.00;98621.47;4976028;28;20046;-85
2022/10/05 04:38:37;;;;;;;0.70;0.70;;;;;;;5.60;100.00;98616.91;4976164;28;20077;-86
2022/10/05 04:41:31;;;;;;;0.68;0.68;;;;;;;5.57;100.00;98617.38;4993898;28;20146;-86
2022/10/05 04:44:21;;;;;;;0.70;0.70;;;;;;;5.56;100.00;98612.22;4991319;28;20104;-86
2022/10/05 04:47:06;;;;;;;0.70;0.70;;;;;;;5.56;100.00;98614.91;4973524;28;20140;-85
2022/10/05 04:50:15;;;;;;;0.70;0.70;;;;;;;5.59;100.00;98622.47;4627906;28;10000093;-84
2022/10/05 04:52:57;;;;;;;0.60;0.60;;;;;;;5.55;100.00;98619.44;4980762;28;20055;-86
2022/10/05 04:55:36;;;;;;;0.70;0.70;;;;;;;5.57;100.00;98619.19;4972935;28;20132;-84
2022/10/05 04:58:15;;;;;;;0.70;0.70;;;;;;;5.63;100.00;98626.38;4982400;28;20058;-85
2022/10/05 05:01:01;;;;;;;0.70;0.70;;;;;;;5.65;100.00;98619.75;4970171;28;20059;-84
2022/10/05 05:03:41;;;;;;;0.70;0.70;;;;;;;5.62;100.00;98625.56;4966918;28;20058;-84
2022/10/05 05:06:32;;;;;;;0.70;0.70;;;;;;;5.66;99.76;98623.25;4986925;28;20534;-87
2022/10/05 05:09:30;;;;;;;0.70;0.70;;;;;;;5.62;99.93;98625.56;4934163;28;20114;-89
2022/10/05 05:12:18;;;;;;;0.60;0.60;;;;;;;5.59;99.84;98622.47;4966336;28;20054;-87
2022/10/05 05:14:53;;;;;;;0.60;0.60;;;;;;;5.60;99.82;98624.94;4951610;28;20054;-86
2022/10/05 05:17:53;;;;;;;0.65;0.65;;;;;;;5.60;100.00;98627.63;4980533;28;20073;-86
2022/10/05 05:20:35;;;;;;;0.70;0.70;;;;;;;5.64;100.00;98628.81;4958902;28;20073;-86
2022/10/05 05:23:09;;;;;;;0.70;0.70;;;;;;;5.56;99.63;98628.28;4974107;28;20054;-85
2022/10/05 05:25:56;;;;;;;0.70;0.70;;;;;;;5.50;98.17;98634.53;4956180;28;20057;-86
2022/10/05 05:28:41;;;;;;;0.70;0.70;;;;;;;5.48;97.34;98633.94;4955346;28;20516;-86
2022/10/05 05:31:14;;;;;;;0.80;0.80;;;;;;;5.49;97.44;98631.00;4981138;28;20394;-85
2022/10/05 05:34:13;;;;;;;0.70;0.70;;;;;;;5.56;97.61;98623.75;4990594;28;20057;-84
2022/10/05 05:36:46;;;;;;;0.70;0.70;;;;;;;5.58;96.73;98629.69;4974957;28;20108;-85
2022/10/05 05:39:27;;;;;;;0.80;0.80;;;;;;;5.63;96.43;98627.19;4974090;28;20468;-82
2022/10/05 05:42:11;;;;;;;0.70;0.70;;;;;;;5.72;96.42;98630.41;4970859;28;20133;-83
2022/10/05 05:44:42;;;;;;;0.70;0.70;;;;;;;5.79;96.22;98638.34;4980759;28;20170;-83
2022/10/05 05:47:20;;;;;;;0.70;0.70;;;;;;;5.84;96.14;98633.94;4967774;28;20042;-85
2022/10/05 05:50:01;;;;;;;0.70;0.70;;;;;;;5.92;96.21;98650.78;4998993;28;20046;-82
2022/10/05 05:52:54;;;;;;;0.80;0.80;;;;;;;5.97;95.87;98649.09;4992765;28;20078;-82
2022/10/05 05:55:25;;;;;;;0.70;0.70;;;;;;;6.05;95.82;98651.50;4984571;28;20065;-84
2022/10/05 05:58:02;;;;;;;0.70;0.70;;;;;;;6.11;95.83;98644.41;4972675;28;20050;-85
2022/10/05 06:00:52;;;;;;;0.70;0.70;;;;;;;6.12;94.45;98647.91;4974910;28;20079;-85
2022/10/05 06:04:04;;;;;;;0.70;0.70;;;;;;;6.05;94.07;98656.84;4989442;28;20081;-87
2022/10/05 06:06:35;;;;;;;0.70;0.70;;;;;;;6.02;93.72;98657.28;4986884;28;20429;-85
2022/10/05 06:09:31;;;;;;;0.70;0.70;;;;;;;6.05;93.70;98656.84;4975147;28;20516;-85
2022/10/05 06:12:21;;;;;;;0.70;0.70;;;;;;;6.11;94.23;98663.16;5008955;28;20054;-85
2022/10/05 06:14:55;;;;;;;0.70;0.70;;;;;;;6.19;94.22;98654.00;5011735;28;20085;-83
2022/10/05 06:17:22;;;;;;;0.70;0.70;;;;;;;6.28;94.24;98664.19;4993949;28;20057;-86
2022/10/05 06:19:53;;;;;;;0.70;0.70;;;;;;;6.27;94.01;98659.88;5010501;28;20046;-85
2022/10/05 06:22:42;;;;;;;0.70;0.70;;;;;;;6.39;93.99;98665.28;4994256;28;20108;-84
2022/10/05 06:25:22;;;;;;;0.73;0.73;;;;;;;6.44;93.69;98670.78;4993744;28;20537;-84
2022/10/05 06:28:11;;;;;;;0.80;0.80;;;;;;;6.47;92.95;98673.03;5011513;28;20100;-83
2022/10/05 06:31:04;;;;;;;0.70;0.70;;;;;;;6.43;92.08;98674.53;4993877;28;20057;-86
2022/10/05 06:33:51;;;;;;;0.77;0.77;;;;;;;6.43;91.67;98671.84;5009686;28;20049;-86
2022/10/05 06:36:39;;;;;;;0.70;0.70;;;;;;;6.55;91.14;98677.25;4993481;28;20041;-84
2022/10/05 06:39:35;;;;;;;0.60;0.60;;;;;;;6.59;90.12;98683.00;5010237;28;20058;-83
2022/10/05 06:42:27;;;;;;;0.70;0.70;;;;;;;6.61;89.91;98686.25;4993653;28;20046;-83
2022/10/05 06:45:54;;;;;;;0.70;0.70;;;;;;;6.54;89.47;98686.34;4931220;29;20530;-84
2022/10/05 06:48:51;;;;;;;0.80;0.80;;;;;;;6.58;89.87;98684.84;4931599;29;20055;-85
2022/10/05 06:52:04;;;;;;;0.70;0.70;;;;;;;6.61;89.34;98688.94;4930963;29;20072;-86
2022/10/05 06:54:45;;;;;;;0.70;0.70;;;;;;;6.54;89.49;98691.72;4931093;29;20051;-85
2022/10/05 06:57:41;;;;;;;0.70;0.70;;;;;;;6.50;90.14;98695.88;4931524;29;20130;-83
2022/10/05 07:00:12;;;;;;;0.80;0.80;;;;;;;6.37;90.52;98706.78;4929908;29;20063;-85
2022/10/05 07:03:10;;;;;;;0.70;0.70;;;;;;;6.30;90.68;98712.19;4931238;29;20063;-84
2022/10/05 07:05:58;;;;;;;0.70;0.70;;;;;;;6.24;91.01;98703.19;4931441;29;20051;-85
2022/10/05 07:09:06;;;;;;;0.70;0.70;;;;;;;6.31;91.69;98716.53;4931137;29;20070;-85
2022/10/05 07:11:42;;;;;;;0.80;0.80;;;;;;;6.42;91.65;98714.97;4874648;29;20396;-87
2022/10/05 07:14:30;;;;;;;0.70;0.70;;;;;;;6.51;90.80;98713.63;4859228;29;20061;-85
2022/10/05 07:17:16;;;;;;;0.70;0.70;;;;;;;6.53;90.37;98713.38;4877811;29;20135;-85
2022/10/05 07:19:54;;;;;;;0.70;0.70;;;;;;;6.53;90.48;98710.69;4863472;29;20514;-85
2022/10/05 07:22:26;;;;;;;0.70;0.70;;;;;;;6.53;90.35;98721.41;4907951;29;20075;-84
2022/10/05 07:25:12;;;;;;;0.70;0.70;;;;;;;6.55;90.86;98722.03;4935458;29;20047;-84
2022/10/05 07:27:53;;;;;;;0.70;0.70;;;;;;;6.63;91.17;98719.84;4935174;29;20119;-85
2022/10/05 07:30:21;;;;;;;0.70;0.70;;;;;;;6.67;90.87;98728.25;4935035;29;20071;-84
2022/10/05 07:33:05;;;;;;;0.70;0.70;;;;;;;6.62;90.71;98725.44;4919073;29;20064;-85
2022/10/05 07:38:52;;;;;;;0.70;0.70;;;;;;;6.71;91.27;98729.47;4934964;29;20471;-86
2022/10/05 07:41:40;;;;;;;0.70;0.70;;;;;;;6.69;90.94;98737.72;4919089;29;20075;-84
2022/10/05 07:44:12;;;;;;;0.60;0.60;;;;;;;6.67;91.11;98744.34;4918982;29;20058;-85
2022/10/05 07:46:50;;;;;;;0.70;0.70;;;;;;;6.65;91.10;98741.88;4993494;28;20433;-84
2022/10/05 07:49:30;;;;;;;0.70;0.70;;;;;;;6.70;91.50;98750.06;5012857;28;20057;-85
2022/10/05 07:52:22;;;;;;;0.70;0.70;;;;;;;6.83;91.66;98743.72;5014274;28;20054;-85
2022/10/05 07:54:52;;;;;;;0.70;0.70;;;;;;;7.10;91.30;98756.78;5012988;28;20256;-86
2022/10/05 07:57:34;;;;;;;0.70;0.70;;;;;;;7.18;89.77;98745.72;5015685;28;20049;-84
2022/10/05 08:00:13;;;;;;;0.70;0.70;;;;;;;7.26;88.96;98763.38;5003397;28;20061;-83
2022/10/05 08:02:54;;;;;;;0.80;0.80;;;;;;;7.47;88.78;98762.00;4981477;28;20128;-84
2022/10/05 08:05:23;;;;;;;0.70;0.70;;;;;;;7.53;87.89;98766.47;5014167;28;20050;-85
2022/10/05 08:07:54;;;;;;;0.70;0.70;;;;;;;7.34;86.85;98761.19;5012606;28;20548;-85
2022/10/05 08:10:39;;;;;;;0.60;0.60;;;;;;;7.14;88.16;98766.00;5012589;28;20042;-85
2022/10/05 08:13:20;;;;;;;0.70;0.70;;;;;;;6.98;88.22;98759.41;5013501;28;20058;-85
2022/10/05 08:15:52;;;;;;;0.60;0.60;;;;;;;6.95;89.12;98771.41;4998728;28;20054;-85
2022/10/05 08:18:38;;;;;;;0.73;0.73;;;;;;;7.09;89.15;98771.25;4993015;28;20515;-85
2022/10/05 08:21:10;;;;;;;0.70;0.70;;;;;;;7.17;88.57;98776.31;4994314;28;20078;-85
2022/10/05 08:23:42;;;;;;;0.70;0.70;;;;;;;7.35;86.46;98776.25;4993007;28;20094;-85
2022/10/05 08:26:50;;;;;;;0.90;0.90;;;;;;;7.89;83.50;98781.59;4993387;28;20058;-85
2022/10/05 08:29:28;;;;;;;0.90;0.90;;;;;;;8.59;80.21;98786.16;4993809;28;20050;-84
2022/10/05 08:32:12;;;;;;;0.80;0.80;;;;;;;8.93;76.95;98774.72;4992829;28;20081;-85
2022/10/05 08:34:54;;;;;;;0.80;0.80;;;;;;;8.90;77.30;98779.53;4976372;28;20058;-84
2022/10/05 08:37:29;;;;;;;0.80;0.80;;;;;;;8.61;76.62;98786.75;4992514;28;20077;-84
2022/10/05 08:40:23;;;;;;;0.90;0.90;;;;;;;8.82;77.58;98787.16;4992896;28;20097;-84
2022/10/05 08:43:02;;;;;;;0.90;0.90;;;;;;;9.64;72.04;98775.19;4994182;28;20068;-84
2022/10/05 08:46:26;;;;;;;1.00;1.00;;;;;;;10.44;67.72;98786.72;4975797;28;20080;-85
2022/10/05 08:49:21;;;;;;;0.88;0.88;;;;;;;10.61;68.79;98776.69;4953654;29;20083;-85
2022/10/05 08:52:03;;;;;;;0.80;0.80;;;;;;;9.85;69.08;98774.50;4953713;29;20051;-86
2022/10/05 08:54:49;;;;;;;0.98;0.98;;;;;;;10.17;68.99;98781.97;4953973;29;20123;-86
2022/10/05 08:57:25;;;;;;;1.00;1.00;;;;;;;10.83;66.37;98773.97;4953808;29;20055;-83
2022/10/05 09:00:27;;;;;;;1.00;1.00;;;;;;;11.00;64.03;98780.13;4953433;29;20430;-84
2022/10/05 09:03:23;;;;;;;0.80;0.80;;;;;;;9.83;68.38;98783.88;4951702;29;20066;-86
2022/10/05 09:06:17;;;;;;;0.60;0.60;;;;;;;9.22;70.31;98789.84;4952836;29;20055;-85
2022/10/05 09:09:14;;;;;;;0.90;0.90;;;;;;;9.37;71.43;98794.69;4936234;29;20058;-85
2022/10/05 09:12:07;;;;;;;1.00;1.00;;;;;;;11.87;65.38;98796.41;4953317;29;20102;-87
2022/10/05 09:14:47;;;;;;;0.90;0.90;;;;;;;12.51;61.33;98803.63;4951847;29;20055;-86
2022/10/05 09:18:06;;;;;;;1.10;1.10;;;;;;;13.29;57.62;98800.16;4952003;29;20055;-84
2022/10/05 09:20:56;;;;;;;1.00;1.00;;;;;;;13.14;56.90;98799.03;4973426;28;20054;-87
2022/10/05 09:23:41;;;;;;;1.10;1.10;;;;;;;13.98;55.68;98798.91;4995544;28;20497;-85
2022/10/05 09:26:23;;;;;;;;;;;;;;;14.49;55.96;98799.66;4992443;28;20062;-85
2022/10/05 09:29:00;;;;;;;0.90;0.90;;;;;;;14.09;54.03;98808.66;4992977;28;19926;-85
2022/10/05 09:31:50;;;;;;;1.00;1.00;;;;;;;13.44;55.24;98811.03;4993287;28;20053;-87
2022/10/05 09:34:29;;;;;;;0.60;0.60;;;;;;;12.14;59.80;98804.47;4992503;28;20101;-85
2022/10/05 09:37:05;;;;;;;0.52;0.52;;;;;;;10.41;65.17;98815.81;4991895;28;20050;-85
2022/10/05 09:39:55;;;;;;;0.60;0.60;;;;;;;9.33;70.19;98828.53;4991378;28;20058;-87
2022/10/05 09:42:54;;;;;;;0.60;0.60;;;;;;;8.62;75.02;98838.66;4984120;28;20058;-87
2022/10/05 09:45:30;;;;;;;0.60;0.60;;;;;;;8.18;76.99;98830.13;4994639;28;20050;-85
2022/10/05 09:47:58;;;;;;;0.70;0.70;;;;;;;7.90;77.24;98825.41;4993573;28;20110;-82
2022/10/05 09:50:46;;;;;;;0.70;0.70;;;;;;;7.73;76.72;98823.41;4989912;28;20057;-84
2022/10/05 09:53:51;;;;;;;0.70;0.70;;;;;;;7.79;76.84;98827.03;4985299;28;20074;-84
2022/10/05 09:56:40;;;;;;;1.10;1.10;;;;;;;10.06;70.25;98829.53;4975577;28;20062;-84
2022/10/05 09:59:40;;;;;;;0.70;0.70;;;;;;;9.29;70.60;98832.75;4979086;28;20521;-84
2022/10/05 10:02:32;;;;;;;0.60;0.60;;;;;;;8.60;73.52;98838.91;4990123;28;20069;-83
2022/10/05 10:05:18;;;;;;;0.60;0.60;;;;;;;8.17;75.52;98828.47;4992160;28;20453;-85
2022/10/05 10:08:04;;;;;;;0.60;0.60;;;;;;;8.05;77.13;98847.28;4974432;28;20084;-84
2022/10/05 10:10:34;;;;;;;0.60;0.60;;;;;;;8.04;77.83;98851.03;4972903;28;20092;-84
2022/10/05 10:13:21;;;;;;;0.70;0.70;;;;;;;8.05;78.35;98852.63;4963508;28;20432;-84
2022/10/05 10:15:51;;;;;;;0.60;0.60;;;;;;;7.99;79.06;98854.38;4964223;28;20433;-83
2022/10/05 10:18:37;;;;;;;0.70;0.70;;;;;;;7.86;79.69;98862.66;4963297;28;20335;-84
2022/10/05 10:21:15;;;;;;;0.70;0.70;;;;;;;7.73;80.21;98866.38;4970404;28;20102;-83
2022/10/05 10:23:53;;;;;;;0.60;0.60;;;;;;;7.58;80.98;98857.94;4968012;28;20039;-83
2022/10/05 10:26:59;;;;;;;0.70;0.70;;;;;;;7.63;81.30;98857.25;4969391;28;20158;-83
2022/10/05 10:29:38;;;;;;;0.80;0.80;;;;;;;7.71;80.82;98863.09;4952009;28;20141;-83
2022/10/05 10:32:35;;;;;;;0.70;0.70;;;;;;;7.80;79.98;98861.72;4971516;28;20057;-83
2022/10/05 10:35:23;;;;;;;0.70;0.70;;;;;;;7.79;79.43;98862.75;4970965;28;20057;-83
2022/10/05 10:38:19;;;;;;;0.70;0.70;;;;;;;7.74;78.85;98873.38;4971172;28;20465;-83
2022/10/05 10:40:54;;;;;;;0.70;0.70;;;;;;;7.58;78.51;98879.41;4965306;28;20049;-84
2022/10/05 10:43:30;;;;;;;0.73;0.73;;;;;;;7.62;79.20;98874.38;4969898;28;20046;-83
2022/10/05 10:46:15;;;;;;;0.80;0.80;;;;;;;7.72;79.40;98875.50;4983572;28;20068;-83
2022/10/05 10:49:08;;;;;;;0.70;0.70;;;;;;;7.82;80.15;98875.75;4970931;28;20046;-83
2022/10/05 10:51:57;;;;;;;0.90;0.90;;;;;;;8.41;79.95;98878.56;4954236;28;20094;-83
2022/10/05 10:54:39;;;;;;;1.30;1.20;;;;;;;11.57;70.56;98869.88;4970433;28;20069;-84
2022/10/05 10:57:10;;;;;;;1.10;1.10;;;;;;;13.44;62.38;98871.53;4962802;28;20134;-83
2022/10/05 10:59:52;;;;;;;1.20;1.20;;;;;;;14.24;59.46;98873.78;4963234;28;20206;-82
2022/10/05 11:02:35;;;;;;;0.60;0.60;;;;;;;14.00;59.07;98872.69;4923057;28;20050;-84
2022/10/05 11:05:35;;;;;;;0.60;0.60;;;;;;;12.47;63.10;98879.09;4971181;28;20050;-81
2022/10/05 11:08:19;;;;;;;0.60;0.60;;;;;;;11.13;66.38;98872.63;4986863;28;20540;-84
2022/10/05 11:11:21;;;;;;;0.60;0.60;;;;;;;10.29;68.69;98887.91;4991479;28;20058;-84
2022/10/05 11:14:20;;;;;;;0.60;0.60;;;;;;;9.52;71.20;98894.63;4986626;28;20086;-86
2022/10/05 11:17:04;;;;;;;0.60;0.60;;;;;;;8.83;73.89;98899.13;4991550;28;20461;-83
2022/10/05 11:20:12;;;;;;;0.70;0.70;;;;;;;8.55;76.01;98902.53;4990455;28;20065;-84
2022/10/05 11:23:03;;;;;;;0.60;0.60;;;;;;;8.43;77.30;98916.81;4979789;28;20612;-83
2022/10/05 11:25:57;;;;;;;0.60;0.60;;;;;;;8.41;78.16;98923.47;4986562;28;20058;-83
2022/10/05 11:28:41;;;;;;;0.70;0.70;;;;;;;8.37;78.27;98923.06;4947567;28;20600;-83
2022/10/05 11:31:20;;;;;;;0.60;0.60;;;;;;;8.46;78.36;98926.28;4990066;28;20501;-82
2022/10/05 11:34:12;;;;;;;0.70;0.70;;;;;;;8.52;78.40;98933.41;4989679;28;20105;-82
2022/10/05 11:36:44;;;;;;;0.70;0.70;;;;;;;8.49;78.62;98941.13;4989048;28;20058;-82
2022/10/05 11:39:40;;;;;;;0.70;0.70;;;;;;;8.50;78.95;98932.00;4979910;28;20501;-83
2022/10/05 11:42:39;;;;;;;0.70;0.70;;;;;;;8.52;78.09;98938.78;4973883;28;20462;-82
2022/10/05 11:45:34;;;;;;;0.85;0.85;;;;;;;8.88;77.46;98934.22;4976707;28;20051;-85
2022/10/05 11:48:14;;;;;;;0.80;0.80;;;;;;;9.88;72.57;98941.13;4956515;28;20110;-83
2022/10/05 11:51:10;;;;;;;0.65;0.65;;;;;;;9.80;71.39;98938.81;4981369;28;20108;-84
2022/10/05 11:53:38;;;;;;;0.60;0.60;;;;;;;9.33;73.32;98947.03;4982430;28;20050;-84
2022/10/05 11:56:14;;;;;;;0.60;0.60;;;;;;;9.00;75.58;98947.69;4972923;28;20046;-82
2022/10/05 11:59:09;;;;;;;0.60;0.60;;;;;;;8.57;76.74;98960.41;4990768;28;20154;-83
2022/10/05 12:01:56;;;;;;;0.60;0.60;;;;;;;8.18;78.10;98959.16;4990630;28;20120;-84
2022/10/05 12:04:32;;;;;;;0.60;0.60;;;;;;;7.88;80.51;98959.19;4976605;28;20524;-85
2022/10/05 12:07:06;;;;;;;0.60;0.60;;;;;;;7.71;81.08;98962.50;4976794;28;20081;-83
2022/10/05 12:09:33;;;;;;;0.90;0.90;;;;;;;7.75;81.91;98969.06;4972388;28;20533;-81
2022/10/05 12:12:20;;;;;;;0.82;0.82;;;;;;;8.50;80.22;98964.28;4990822;28;20285;-83
2022/10/05 12:14:57;;;;;;;0.70;0.70;;;;;;;8.15;80.92;98967.66;4644128;28;10000511;-82
2022/10/05 12:17:31;;;;;;;0.70;0.70;;;;;;;7.95;82.10;98963.41;4971972;28;20237;-83
2022/10/05 12:20:07;;;;;;;0.70;0.70;;;;;;;7.90;82.39;98971.34;4986314;28;20068;-85
2022/10/05 12:22:45;;;;;;;0.70;0.70;;;;;;;8.09;80.60;98976.66;4980312;28;20496;-81
2022/10/05 12:25:26;;;;;;;0.80;0.80;;;;;;;8.23;80.09;98978.94;4990493;28;20117;-84
2022/10/05 12:27:58;;;;;;;0.70;0.70;;;;;;;8.23;80.26;98987.00;4988823;28;20085;-81
2022/10/05 12:30:50;;;;;;;0.70;0.70;;;;;;;8.22;80.45;98982.66;4950900;28;20152;-83
2022/10/05 12:33:34;;;;;;;0.68;0.68;;;;;;;8.27;80.02;98981.16;4986426;28;20046;-81
2022/10/05 12:36:12;;;;;;;0.60;0.60;;;;;;;8.19;79.89;98985.78;4986850;28;20050;-85
2022/10/05 12:38:52;;;;;;;0.70;0.70;;;;;;;8.21;80.24;98975.63;4986379;28;20050;-82
2022/10/05 12:41:25;;;;;;;0.70;0.70;;;;;;;8.31;79.25;98976.97;4988903;28;20476;-82
2022/10/05 12:44:43;;;;;;;1.10;1.10;;;;;;;9.47;77.72;98983.44;4988376;28;20520;-83
2022/10/05 12:47:24;;;;;;;0.90;0.90;;;;;;;10.81;71.37;98987.50;4948181;29;20462;-84
2022/10/05 12:50:23;;;;;;;0.70;0.70;;;;;;;9.98;71.56;98987.13;4930864;29;20536;-83
2022/10/05 12:53:21;;;;;;;0.85;0.85;;;;;;;9.68;72.92;98989.25;4926164;29;20048;-83
2022/10/05 12:56:00;;;;;;;1.20;1.20;;;;;;;12.42;63.41;98987.31;4937204;29;20051;-82
2022/10/05 12:58:27;;;;;;;1.10;1.10;;;;;;;13.85;59.18;98982.81;4928682;29;20537;-85
2022/10/05 13:01:01;;;;;;;0.70;0.70;;;;;;;13.81;57.01;98984.44;4948055;29;20068;-85